sensor_id;sensor_type;location;lat;lon;timestamp;pressure;altitude;pressure_sealevel;temperature;humidity
53619;BME280;68717;53.040;18.488;2023-11-18T00:00:04;101559.06;;;3.24;100.00
53619;BME280;68717;53.040;18.488;2023-11-18T00:00:32;101564.38;;;3.24;100.00
53619;BME280;68717;53.040;18.488;2023-11-18T00:01:09;101567.94;;;3.23;100.00
53619;BME280;68717;53.040;18.488;2023-11-18T00:01:31;101565.31;;;3.23;100.00
53619;BME280;68717;53.040;18.488;2023-11-18T00:01:44;101567.94;;;3.23;100.00
53619;BME280;68717;53.040;18.488;2023-11-18T00:01:56;101561.81;;;3.22;100.00
53619;BME280;68717;53.040;18.488;2023-11-18T00:02:09;101564.44;;;3.22;100.00
53619;BME280;68717;53.040;18.488;2023-11-18T00:02:23;101566.22;;;3.22;100.00
53619;BME280;68717;53.040;18.488;2023-11-18T00:02:37;101569.75;;;3.22;100.00
53619;BME280;68717;53.040;18.488;2023-11-18T00:02:51;101567.09;;;3.22;100.00
53619;BME280;68717;53.040;18.488;2023-11-18T00:03:04;101566.22;;;3.22;100.00
53619;BME280;68717;53.040;18.488;2023-11-18T00:03:18;101561.81;;;3.22;100.00
53619;BME280;68717;53.040;18.488;2023-11-18T00:03:30;101564.44;;;3.22;100.00
53619;BME280;68717;53.040;18.488;2023-11-18T00:03:43;101561.81;;;3.22;100.00
53619;BME280;68717;53.040;18.488;2023-11-18T00:03:56;101566.22;;;3.22;100.00
53619;BME280;68717;53.040;18.488;2023-11-18T00:04:09;101567.94;;;3.23;100.00
53619;BME280;68717;53.040;18.488;2023-11-18T00:04:28;101567.09;;;3.22;100.00
53619;BME280;68717;53.040;18.488;2023-11-18T00:04:42;101560.84;;;3.23;100.00
53619;BME280;68717;53.040;18.488;2023-11-18T00:04:55;101567.09;;;3.22;100.00
53619;BME280;68717;53.040;18.488;2023-11-18T00:05:08;101567.94;;;3.23;100.00
53619;BME280;68717;53.040;18.488;2023-11-18T00:05:21;101567.00;;;3.24;100.00
53619;BME280;68717;53.040;18.488;2023-11-18T00:05:34;101565.31;;;3.23;100.00
53619;BME280;68717;53.040;18.488;2023-11-18T00:05:46;101567.94;;;3.23;100.00
53619;BME280;68717;53.040;18.488;2023-11-18T00:05:59;101567.94;;;3.23;100.00
53619;BME280;68717;53.040;18.488;2023-11-18T00:06:12;101565.31;;;3.23;100.00
53619;BME280;68717;53.040;18.488;2023-11-18T00:06:25;101567.91;;;3.24;100.00
53619;BME280;68717;53.040;18.488;2023-11-18T00:06:38;101567.94;;;3.23;100.00
53619;BME280;68717;53.040;18.488;2023-11-18T00:06:51;101562.66;;;3.23;100.00
53619;BME280;68717;53.040;18.488;2023-11-18T00:07:04;101569.66;;;3.24;100.00
53619;BME280;68717;53.040;18.488;2023-11-18T00:07:17;101572.31;;;3.24;100.00
53619;BME280;68717;53.040;18.488;2023-11-18T00:07:30;101564.38;;;3.24;100.00
53619;BME280;68717;53.040;18.488;2023-11-18T00:07:44;101564.38;;;3.24;100.00
53619;BME280;68717;53.040;18.488;2023-11-18T00:07:57;101567.94;;;3.23;100.00
53619;BME280;68717;53.040;18.488;2023-11-18T00:08:10;101569.66;;;3.24;100.00
53619;BME280;68717;53.040;18.488;2023-11-18T00:08:22;101569.66;;;3.24;100.00
53619;BME280;68717;53.040;18.488;2023-11-18T00:08:37;101568.75;;;3.25;100.00
53619;BME280;68717;53.040;18.488;2023-11-18T00:08:49;101567.00;;;3.24;100.00
53619;BME280;68717;53.040;18.488;2023-11-18T00:09:02;101576.69;;;3.25;100.00
53619;BME280;68717;53.040;18.488;2023-11-18T00:09:15;101570.47;;;3.26;100.00
53619;BME280;68717;53.040;18.488;2023-11-18T00:09:27;101567.81;;;3.26;100.00
53619;BME280;68717;53.040;18.488;2023-11-18T00:09:41;101573.19;;;3.24;100.00
53619;BME280;68717;53.040;18.488;2023-11-18T00:09:58;101571.41;;;3.25;100.00
53619;BME280;68717;53.040;18.488;2023-11-18T00:10:11;101576.69;;;3.25;100.00
53619;BME280;68717;53.040;18.488;2023-11-18T00:10:24;101574.06;;;3.25;100.00
53619;BME280;68717;53.040;18.488;2023-11-18T00:10:38;101566.09;;;3.25;100.00
53619;BME280;68717;53.040;18.488;2023-11-18T00:10:50;101574.97;;;3.24;100.00
53619;BME280;68717;53.040;18.488;2023-11-18T00:11:03;101575.84;;;3.24;100.00
53619;BME280;68717;53.040;18.488;2023-11-18T00:11:16;101569.66;;;3.24;100.00
53619;BME280;68717;53.040;18.488;2023-11-18T00:11:29;101571.41;;;3.25;100.00
53619;BME280;68717;53.040;18.488;2023-11-18T00:11:42;101570.53;;;3.24;100.00
53619;BME280;68717;53.040;18.488;2023-11-18T00:11:55;101574.91;;;3.25;100.00
53619;BME280;68717;53.040;18.488;2023-11-18T00:12:07;101571.41;;;3.25;100.00
53619;BME280;68717;53.040;18.488;2023-11-18T00:12:20;101572.25;;;3.25;100.00
53619;BME280;68717;53.040;18.488;2023-11-18T00:12:34;101573.19;;;3.24;100.00
53619;BME280;68717;53.040;18.488;2023-11-18T00:12:47;101574.09;;;3.23;100.00
53619;BME280;68717;53.040;18.488;2023-11-18T00:12:59;101570.53;;;3.24;100.00
53619;BME280;68717;53.040;18.488;2023-11-18T00:13:14;101575.84;;;3.24;100.00
53619;BME280;68717;53.040;18.488;2023-11-18T00:13:27;101571.41;;;3.25;100.00
53619;BME280;68717;53.040;18.488;2023-11-18T00:13:41;101578.41;;;3.26;100.00
53619;BME280;68717;53.040;18.488;2023-11-18T00:13:55;101571.41;;;3.25;100.00
53619;BME280;68717;53.040;18.488;2023-11-18T00:14:09;101574.06;;;3.25;100.00
53619;BME280;68717;53.040;18.488;2023-11-18T00:14:23;101574.06;;;3.25;100.00
53619;BME280;68717;53.040;18.488;2023-11-18T00:14:36;101572.25;;;3.25;100.00
53619;BME280;68717;53.040;18.488;2023-11-18T00:14:48;101581.06;;;3.26;100.00
53619;BME280;68717;53.040;18.488;2023-11-18T00:15:01;101574.06;;;3.25;100.00
53619;BME280;68717;53.040;18.488;2023-11-18T00:15:16;101581.06;;;3.26;100.00
53619;BME280;68717;53.040;18.488;2023-11-18T00:15:28;101570.53;;;3.24;100.00
53619;BME280;68717;53.040;18.488;2023-11-18T00:15:41;101578.41;;;3.26;100.00
53619;BME280;68717;53.040;18.488;2023-11-18T00:15:55;101574.06;;;3.25;100.00
53619;BME280;68717;53.040;18.488;2023-11-18T00:16:10;101574.91;;;3.25;100.00
53619;BME280;68717;53.040;18.488;2023-11-18T00:16:24;101577.56;;;3.25;100.00
53619;BME280;68717;53.040;18.488;2023-11-18T00:16:39;101577.59;;;3.24;100.00
53619;BME280;68717;53.040;18.488;2023-11-18T00:16:51;101572.25;;;3.25;100.00
53619;BME280;68717;53.040;18.488;2023-11-18T00:17:04;101574.97;;;3.24;100.00
53619;BME280;68717;53.040;18.488;2023-11-18T00:17:17;101574.06;;;3.25;100.00
53619;BME280;68717;53.040;18.488;2023-11-18T00:17:31;101575.84;;;3.24;100.00
53619;BME280;68717;53.040;18.488;2023-11-18T00:17:44;101580.25;;;3.24;100.00
53619;BME280;68717;53.040;18.488;2023-11-18T00:17:58;101575.84;;;3.24;100.00
53619;BME280;68717;53.040;18.488;2023-11-18T00:18:12;101577.59;;;3.24;100.00
53619;BME280;68717;53.040;18.488;2023-11-18T00:18:24;101576.69;;;3.25;100.00
53619;BME280;68717;53.040;18.488;2023-11-18T00:18:38;101585.56;;;3.24;100.00
53619;BME280;68717;53.040;18.488;2023-11-18T00:18:50;101574.97;;;3.24;100.00
53619;BME280;68717;53.040;18.488;2023-11-18T00:19:03;101580.25;;;3.24;100.00
53619;BME280;68717;53.040;18.488;2023-11-18T00:19:17;101582.91;;;3.24;100.00
53619;BME280;68717;53.040;18.488;2023-11-18T00:19:30;101587.34;;;3.23;100.00
53619;BME280;68717;53.040;18.488;2023-11-18T00:19:42;101580.25;;;3.24;100.00
53619;BME280;68717;53.040;18.488;2023-11-18T00:19:56;101584.66;;;3.25;100.00
53619;BME280;68717;53.040;18.488;2023-11-18T00:20:10;101576.69;;;3.25;100.00
53619;BME280;68717;53.040;18.488;2023-11-18T00:20:26;101585.56;;;3.24;100.00
53619;BME280;68717;53.040;18.488;2023-11-18T00:20:38;101582.00;;;3.25;100.00
53619;BME280;68717;53.040;18.488;2023-11-18T00:20:51;101576.69;;;3.25;100.00
53619;BME280;68717;53.040;18.488;2023-11-18T00:21:05;101576.69;;;3.25;100.00
53619;BME280;68717;53.040;18.488;2023-11-18T00:21:17;101579.34;;;3.25;100.00
53619;BME280;68717;53.040;18.488;2023-11-18T00:21:30;101582.00;;;3.25;100.00
53619;BME280;68717;53.040;18.488;2023-11-18T00:21:43;101582.00;;;3.25;100.00
53619;BME280;68717;53.040;18.488;2023-11-18T00:21:56;101583.78;;;3.24;100.00
53619;BME280;68717;53.040;18.488;2023-11-18T00:22:09;101586.44;;;3.24;100.00
53619;BME280;68717;53.040;18.488;2023-11-18T00:22:23;101582.91;;;3.24;100.00
53619;BME280;68717;53.040;18.488;2023-11-18T00:22:36;101581.16;;;3.24;100.00
53619;BME280;68717;53.040;18.488;2023-11-18T00:22:49;101581.16;;;3.24;100.00
53619;BME280;68717;53.040;18.488;2023-11-18T00:23:03;101586.44;;;3.24;100.00
53619;BME280;68717;53.040;18.488;2023-11-18T00:23:17;101581.16;;;3.24;100.00
53619;BME280;68717;53.040;18.488;2023-11-18T00:23:33;101581.19;;;3.23;100.00
53619;BME280;68717;53.040;18.488;2023-11-18T00:23:46;101585.56;;;3.24;100.00
53619;BME280;68717;53.040;18.488;2023-11-18T00:24:00;101577.59;;;3.24;100.00
53619;BME280;68717;53.040;18.488;2023-11-18T00:24:13;101590.00;;;3.23;100.00
53619;BME280;68717;53.040;18.488;2023-11-18T00:24:27;101582.06;;;3.23;100.00
53619;BME280;68717;53.040;18.488;2023-11-18T00:24:39;101580.25;;;3.24;100.00
53619;BME280;68717;53.040;18.488;2023-11-18T00:24:53;101585.56;;;3.24;100.00
53619;BME280;68717;53.040;18.488;2023-11-18T00:25:08;101586.50;;;3.23;100.00
53619;BME280;68717;53.040;18.488;2023-11-18T00:25:21;101583.84;;;3.23;100.00
53619;BME280;68717;53.040;18.488;2023-11-18T00:25:34;101589.16;;;3.23;100.00
53619;BME280;68717;53.040;18.488;2023-11-18T00:25:48;101584.75;;;3.22;100.00
53619;BME280;68717;53.040;18.488;2023-11-18T00:26:01;101588.34;;;3.21;100.00
53619;BME280;68717;53.040;18.488;2023-11-18T00:26:15;101582.13;;;3.22;100.00
53619;BME280;68717;53.040;18.488;2023-11-18T00:26:28;101583.91;;;3.21;100.00
53619;BME280;68717;53.040;18.488;2023-11-18T00:26:41;101587.41;;;3.22;100.00
53619;BME280;68717;53.040;18.488;2023-11-18T00:26:54;101581.25;;;3.21;100.00
53619;BME280;68717;53.040;18.488;2023-11-18T00:27:07;101591.84;;;3.21;100.00
53619;BME280;68717;53.040;18.488;2023-11-18T00:27:20;101587.41;;;3.22;100.00
53619;BME280;68717;53.040;18.488;2023-11-18T00:27:32;101586.56;;;3.21;100.00
53619;BME280;68717;53.040;18.488;2023-11-18T00:27:48;101588.28;;;3.22;100.00
53619;BME280;68717;53.040;18.488;2023-11-18T00:28:02;101595.34;;;3.22;100.00
53619;BME280;68717;53.040;18.488;2023-11-18T00:28:15;101591.00;;;3.21;100.00
53619;BME280;68717;53.040;18.488;2023-11-18T00:28:27;101595.44;;;3.20;100.00
53619;BME280;68717;53.040;18.488;2023-11-18T00:28:40;101589.25;;;3.20;100.00
53619;BME280;68717;53.040;18.488;2023-11-18T00:28:52;101591.06;;;3.19;100.00
53619;BME280;68717;53.040;18.488;2023-11-18T00:29:05;101594.56;;;3.20;100.00
53619;BME280;68717;53.040;18.488;2023-11-18T00:29:18;101599.00;;;3.19;100.00
53619;BME280;68717;53.040;18.488;2023-11-18T00:29:32;101592.84;;;3.19;100.00
53619;BME280;68717;53.040;18.488;2023-11-18T00:29:44;101592.84;;;3.19;100.00
53619;BME280;68717;53.040;18.488;2023-11-18T00:29:57;101591.16;;;3.18;100.00
53619;BME280;68717;53.040;18.488;2023-11-18T00:30:10;101596.44;;;3.18;100.00
53619;BME280;68717;53.040;18.488;2023-11-18T00:30:24;101594.72;;;3.17;100.00
53619;BME280;68717;53.040;18.488;2023-11-18T00:30:37;101593.78;;;3.18;100.00
53619;BME280;68717;53.040;18.488;2023-11-18T00:30:49;101597.28;;;3.18;100.00
53619;BME280;68717;53.040;18.488;2023-11-18T00:31:02;101582.25;;;3.19;100.00
53619;BME280;68717;53.040;18.488;2023-11-18T00:31:17;101592.00;;;3.18;100.00
53619;BME280;68717;53.040;18.488;2023-11-18T00:31:29;101600.81;;;3.19;100.00
53619;BME280;68717;53.040;18.488;2023-11-18T00:31:42;101598.16;;;3.19;100.00
53619;BME280;68717;53.040;18.488;2023-11-18T00:31:55;101599.88;;;3.20;100.00
53619;BME280;68717;53.040;18.488;2023-11-18T00:32:08;101593.72;;;3.19;100.00
53619;BME280;68717;53.040;18.488;2023-11-18T00:32:20;101596.34;;;3.19;100.00
53619;BME280;68717;53.040;18.488;2023-11-18T00:32:34;101596.44;;;3.18;100.00
53619;BME280;68717;53.040;18.488;2023-11-18T00:32:47;101596.44;;;3.18;100.00
53619;BME280;68717;53.040;18.488;2023-11-18T00:33:00;101598.22;;;3.17;100.00
53619;BME280;68717;53.040;18.488;2023-11-18T00:33:13;101598.16;;;3.19;100.00
53619;BME280;68717;53.040;18.488;2023-11-18T00:33:26;101599.94;;;3.18;100.00
53619;BME280;68717;53.040;18.488;2023-11-18T00:33:39;101602.59;;;3.18;100.00
53619;BME280;68717;53.040;18.488;2023-11-18T00:33:52;101604.41;;;3.18;100.00
53619;BME280;68717;53.040;18.488;2023-11-18T00:34:06;101597.28;;;3.18;100.00
53619;BME280;68717;53.040;18.488;2023-11-18T00:34:18;101603.44;;;3.19;100.00
53619;BME280;68717;53.040;18.488;2023-11-18T00:34:31;101600.81;;;3.19;100.00
53619;BME280;68717;53.040;18.488;2023-11-18T00:34:43;101601.75;;;3.18;100.00
53619;BME280;68717;53.040;18.488;2023-11-18T00:34:57;101597.34;;;3.17;100.00
53619;BME280;68717;53.040;18.488;2023-11-18T00:35:09;101596.44;;;3.18;100.00
53619;BME280;68717;53.040;18.488;2023-11-18T00:35:23;101601.75;;;3.18;100.00
53619;BME280;68717;53.040;18.488;2023-11-18T00:35:36;101601.75;;;3.18;100.00
53619;BME280;68717;53.040;18.488;2023-11-18T00:35:49;101602.66;;;3.17;100.00
53619;BME280;68717;53.040;18.488;2023-11-18T00:36:02;101606.16;;;3.17;100.00
53619;BME280;68717;53.040;18.488;2023-11-18T00:36:15;101599.16;;;3.16;100.00
53619;BME280;68717;53.040;18.488;2023-11-18T00:36:28;101604.44;;;3.16;100.00
53619;BME280;68717;53.040;18.488;2023-11-18T00:36:40;101602.66;;;3.17;100.00
53619;BME280;68717;53.040;18.488;2023-11-18T00:36:53;101602.66;;;3.17;100.00
53619;BME280;68717;53.040;18.488;2023-11-18T00:37:06;101600.94;;;3.16;100.00
53619;BME280;68717;53.040;18.488;2023-11-18T00:37:22;101607.94;;;3.17;100.00
53619;BME280;68717;53.040;18.488;2023-11-18T00:37:35;101600.00;;;3.17;100.00
53619;BME280;68717;53.040;18.488;2023-11-18T00:37:47;101602.72;;;3.15;100.00
53619;BME280;68717;53.040;18.488;2023-11-18T00:38:00;101599.16;;;3.16;100.00
53619;BME280;68717;53.040;18.488;2023-11-18T00:38:13;101602.66;;;3.17;100.00
53619;BME280;68717;53.040;18.488;2023-11-18T00:38:25;101602.66;;;3.17;100.00
53619;BME280;68717;53.040;18.488;2023-11-18T00:38:38;101605.31;;;3.17;100.00
53619;BME280;68717;53.040;18.488;2023-11-18T00:38:50;101602.66;;;3.17;100.00
53619;BME280;68717;53.040;18.488;2023-11-18T00:39:03;101609.69;;;3.18;100.00
53619;BME280;68717;53.040;18.488;2023-11-18T00:39:17;101602.66;;;3.17;100.00
53619;BME280;68717;53.040;18.488;2023-11-18T00:39:30;101598.22;;;3.17;100.00
53619;BME280;68717;53.040;18.488;2023-11-18T00:39:43;101605.31;;;3.17;100.00
53619;BME280;68717;53.040;18.488;2023-11-18T00:39:57;101606.16;;;3.17;100.00
53619;BME280;68717;53.040;18.488;2023-11-18T00:40:09;101605.25;;;3.18;100.00
53619;BME280;68717;53.040;18.488;2023-11-18T00:40:23;101607.03;;;3.18;100.00
53619;BME280;68717;53.040;18.488;2023-11-18T00:40:36;101605.25;;;3.18;100.00
53619;BME280;68717;53.040;18.488;2023-11-18T00:40:50;101605.25;;;3.18;100.00
53619;BME280;68717;53.040;18.488;2023-11-18T00:41:03;101607.91;;;3.18;100.00
53619;BME280;68717;53.040;18.488;2023-11-18T00:41:17;101606.16;;;3.17;100.00
53619;BME280;68717;53.040;18.488;2023-11-18T00:41:30;101611.41;;;3.19;100.00
53619;BME280;68717;53.040;18.488;2023-11-18T00:41:42;101603.44;;;3.19;100.00
53619;BME280;68717;53.040;18.488;2023-11-18T00:41:55;101606.97;;;3.19;100.00
53619;BME280;68717;53.040;18.488;2023-11-18T00:42:08;101611.41;;;3.19;100.00
53619;BME280;68717;53.040;18.488;2023-11-18T00:42:20;101606.09;;;3.19;100.00
53619;BME280;68717;53.040;18.488;2023-11-18T00:42:33;101607.91;;;3.18;100.00
53619;BME280;68717;53.040;18.488;2023-11-18T00:42:46;101618.50;;;3.18;100.00
53619;BME280;68717;53.040;18.488;2023-11-18T00:42:58;101607.91;;;3.18;100.00
53619;BME280;68717;53.040;18.488;2023-11-18T00:43:12;101613.09;;;3.20;100.00
53619;BME280;68717;53.040;18.488;2023-11-18T00:43:24;101605.16;;;3.20;100.00
53619;BME280;68717;53.040;18.488;2023-11-18T00:43:37;101612.19;;;3.21;100.00
53619;BME280;68717;53.040;18.488;2023-11-18T00:43:50;101613.09;;;3.20;100.00
53619;BME280;68717;53.040;18.488;2023-11-18T00:44:02;101613.06;;;3.21;100.00
53619;BME280;68717;53.040;18.488;2023-11-18T00:44:15;101613.09;;;3.20;100.00
53619;BME280;68717;53.040;18.488;2023-11-18T00:44:28;101612.25;;;3.19;100.00
53619;BME280;68717;53.040;18.488;2023-11-18T00:44:40;101610.47;;;3.20;100.00
53619;BME280;68717;53.040;18.488;2023-11-18T00:44:53;101614.06;;;3.19;100.00
53619;BME280;68717;53.040;18.488;2023-11-18T00:45:08;101611.34;;;3.20;100.00
53619;BME280;68717;53.040;18.488;2023-11-18T00:45:25;101607.75;;;3.21;100.00
53619;BME280;68717;53.040;18.488;2023-11-18T00:45:37;101613.91;;;3.22;100.00
53619;BME280;68717;53.040;18.488;2023-11-18T00:45:50;101618.34;;;3.21;100.00
53619;BME280;68717;53.040;18.488;2023-11-18T00:46:04;101617.50;;;3.21;100.00
53619;BME280;68717;53.040;18.488;2023-11-18T00:46:21;101613.91;;;3.22;100.00
53619;BME280;68717;53.040;18.488;2023-11-18T00:46:34;101613.91;;;3.22;100.00
53619;BME280;68717;53.040;18.488;2023-11-18T00:46:49;101621.84;;;3.22;100.00
53619;BME280;68717;53.040;18.488;2023-11-18T00:47:02;101620.94;;;3.23;100.00
53619;BME280;68717;53.040;18.488;2023-11-18T00:47:15;101621.81;;;3.23;100.00
53619;BME280;68717;53.040;18.488;2023-11-18T00:47:29;101621.81;;;3.23;100.00
53619;BME280;68717;53.040;18.488;2023-11-18T00:47:41;101620.94;;;3.23;100.00
53619;BME280;68717;53.040;18.488;2023-11-18T00:47:55;101617.34;;;3.24;100.00
53619;BME280;68717;53.040;18.488;2023-11-18T00:48:07;101621.81;;;3.23;100.00
53619;BME280;68717;53.040;18.488;2023-11-18T00:48:20;101622.66;;;3.24;100.00
53619;BME280;68717;53.040;18.488;2023-11-18T00:48:33;101617.34;;;3.24;100.00
53619;BME280;68717;53.040;18.488;2023-11-18T00:48:46;101622.66;;;3.24;100.00
53619;BME280;68717;53.040;18.488;2023-11-18T00:48:58;101622.66;;;3.24;100.00
53619;BME280;68717;53.040;18.488;2023-11-18T00:49:11;101624.44;;;3.23;100.00
53619;BME280;68717;53.040;18.488;2023-11-18T00:49:24;101627.09;;;3.23;100.00
53619;BME280;68717;53.040;18.488;2023-11-18T00:49:38;101627.09;;;3.23;100.00
53619;BME280;68717;53.040;18.488;2023-11-18T00:49:51;101623.59;;;3.23;100.00
53619;BME280;68717;53.040;18.488;2023-11-18T00:50:06;101623.59;;;3.23;100.00
53619;BME280;68717;53.040;18.488;2023-11-18T00:50:21;101625.31;;;3.24;100.00
53619;BME280;68717;53.040;18.488;2023-11-18T00:50:33;101626.25;;;3.23;100.00
53619;BME280;68717;53.040;18.488;2023-11-18T00:50:46;101625.31;;;3.24;100.00
53619;BME280;68717;53.040;18.488;2023-11-18T00:50:59;101627.06;;;3.25;100.00
53619;BME280;68717;53.040;18.488;2023-11-18T00:51:11;101627.97;;;3.24;100.00
53619;BME280;68717;53.040;18.488;2023-11-18T00:51:24;101631.50;;;3.24;100.00
53619;BME280;68717;53.040;18.488;2023-11-18T00:51:37;101628.84;;;3.24;100.00
53619;BME280;68717;53.040;18.488;2023-11-18T00:51:50;101629.75;;;3.23;100.00
53619;BME280;68717;53.040;18.488;2023-11-18T00:52:04;101628.91;;;3.23;100.00
53619;BME280;68717;53.040;18.488;2023-11-18T00:52:16;101628.91;;;3.23;100.00
53619;BME280;68717;53.040;18.488;2023-11-18T00:52:29;101627.09;;;3.23;100.00
53619;BME280;68717;53.040;18.488;2023-11-18T00:52:42;101628.91;;;3.23;100.00
53619;BME280;68717;53.040;18.488;2023-11-18T00:52:55;101630.59;;;3.24;100.00
53619;BME280;68717;53.040;18.488;2023-11-18T00:53:08;101626.25;;;3.23;100.00
53619;BME280;68717;53.040;18.488;2023-11-18T00:53:22;101635.91;;;3.24;100.00
53619;BME280;68717;53.040;18.488;2023-11-18T00:53:36;101626.25;;;3.23;100.00
53619;BME280;68717;53.040;18.488;2023-11-18T00:53:49;101632.41;;;3.23;100.00
53619;BME280;68717;53.040;18.488;2023-11-18T00:54:02;101627.97;;;3.24;100.00
53619;BME280;68717;53.040;18.488;2023-11-18T00:54:17;101626.25;;;3.23;100.00
53619;BME280;68717;53.040;18.488;2023-11-18T00:54:30;101625.41;;;3.22;100.00
53619;BME280;68717;53.040;18.488;2023-11-18T00:54:42;101627.09;;;3.23;100.00
53619;BME280;68717;53.040;18.488;2023-11-18T00:54:56;101631.56;;;3.23;100.00
53619;BME280;68717;53.040;18.488;2023-11-18T00:55:09;101626.25;;;3.23;100.00
53619;BME280;68717;53.040;18.488;2023-11-18T00:55:23;101634.19;;;3.23;100.00
53619;BME280;68717;53.040;18.488;2023-11-18T00:55:37;101630.69;;;3.22;100.00
53619;BME280;68717;53.040;18.488;2023-11-18T00:55:49;101635.91;;;3.24;100.00
53619;BME280;68717;53.040;18.488;2023-11-18T00:56:02;101631.56;;;3.23;100.00
53619;BME280;68717;53.040;18.488;2023-11-18T00:56:20;101631.56;;;3.23;100.00
53619;BME280;68717;53.040;18.488;2023-11-18T00:56:34;101641.28;;;3.22;100.00
53619;BME280;68717;53.040;18.488;2023-11-18T00:56:47;101633.34;;;3.22;100.00
53619;BME280;68717;53.040;18.488;2023-11-18T00:56:59;101639.56;;;3.21;100.00
53619;BME280;68717;53.040;18.488;2023-11-18T00:57:12;101631.66;;;3.20;100.00
53619;BME280;68717;53.040;18.488;2023-11-18T00:57:24;101644.00;;;3.21;100.00
53619;BME280;68717;53.040;18.488;2023-11-18T00:57:38;101628.09;;;3.21;100.00
53619;BME280;68717;53.040;18.488;2023-11-18T00:57:51;101644.00;;;3.21;100.00
53619;BME280;68717;53.040;18.488;2023-11-18T00:58:04;101638.69;;;3.21;100.00
53619;BME280;68717;53.040;18.488;2023-11-18T00:58:18;101631.66;;;3.20;100.00
53619;BME280;68717;53.040;18.488;2023-11-18T00:58:30;101638.75;;;3.19;100.00
53619;BME280;68717;53.040;18.488;2023-11-18T00:58:43;101637.91;;;3.19;100.00
53619;BME280;68717;53.040;18.488;2023-11-18T00:58:56;101640.53;;;3.19;100.00
53619;BME280;68717;53.040;18.488;2023-11-18T00:59:09;101640.53;;;3.19;100.00
53619;BME280;68717;53.040;18.488;2023-11-18T00:59:22;101636.19;;;3.18;100.00
53619;BME280;68717;53.040;18.488;2023-11-18T00:59:36;101633.53;;;3.18;100.00
53619;BME280;68717;53.040;18.488;2023-11-18T00:59:48;101637.03;;;3.18;100.00
53619;BME280;68717;53.040;18.488;2023-11-18T01:00:02;101638.84;;;3.18;100.00
53619;BME280;68717;53.040;18.488;2023-11-18T01:00:15;101636.19;;;3.18;100.00
53619;BME280;68717;53.040;18.488;2023-11-18T01:00:28;101636.19;;;3.18;100.00
53619;BME280;68717;53.040;18.488;2023-11-18T01:00:45;101634.41;;;3.18;100.00
53619;BME280;68717;53.040;18.488;2023-11-18T01:00:58;101638.84;;;3.18;100.00
53619;BME280;68717;53.040;18.488;2023-11-18T01:01:13;101639.75;;;3.17;100.00
53619;BME280;68717;53.040;18.488;2023-11-18T01:01:25;101638.84;;;3.18;100.00
53619;BME280;68717;53.040;18.488;2023-11-18T01:01:38;101639.75;;;3.17;100.00
53619;BME280;68717;53.040;18.488;2023-11-18T01:01:51;101636.25;;;3.16;100.00
53619;BME280;68717;53.040;18.488;2023-11-18T01:02:03;101631.81;;;3.17;100.00
53619;BME280;68717;53.040;18.488;2023-11-18T01:02:17;101635.38;;;3.16;100.00
53619;BME280;68717;53.040;18.488;2023-11-18T01:02:30;101634.50;;;3.15;100.00
53619;BME280;68717;53.040;18.488;2023-11-18T01:02:43;101629.19;;;3.15;100.00
53619;BME280;68717;53.040;18.488;2023-11-18T01:02:56;101633.59;;;3.16;100.00
53619;BME280;68717;53.040;18.488;2023-11-18T01:03:09;101631.84;;;3.15;100.00
53619;BME280;68717;53.040;18.488;2023-11-18T01:03:22;101632.75;;;3.16;100.00
53619;BME280;68717;53.040;18.488;2023-11-18T01:03:35;101629.19;;;3.15;100.00
53619;BME280;68717;53.040;18.488;2023-11-18T01:03:48;101629.19;;;3.15;100.00
53619;BME280;68717;53.040;18.488;2023-11-18T01:04:01;101628.34;;;3.15;100.00
53619;BME280;68717;53.040;18.488;2023-11-18T01:04:13;101624.78;;;3.16;100.00
53619;BME280;68717;53.040;18.488;2023-11-18T01:04:26;101629.19;;;3.15;100.00
53619;BME280;68717;53.040;18.488;2023-11-18T01:04:39;101632.75;;;3.16;100.00
53619;BME280;68717;53.040;18.488;2023-11-18T01:04:52;101628.34;;;3.15;100.00
53619;BME280;68717;53.040;18.488;2023-11-18T01:05:06;101628.34;;;3.15;100.00
53619;BME280;68717;53.040;18.488;2023-11-18T01:05:19;101625.69;;;3.15;100.00
53619;BME280;68717;53.040;18.488;2023-11-18T01:05:32;101626.56;;;3.15;100.00
53619;BME280;68717;53.040;18.488;2023-11-18T01:05:45;101628.34;;;3.15;100.00
53619;BME280;68717;53.040;18.488;2023-11-18T01:05:57;101626.63;;;3.14;100.00
53619;BME280;68717;53.040;18.488;2023-11-18T01:06:10;101627.50;;;3.14;100.00
53619;BME280;68717;53.040;18.488;2023-11-18T01:06:23;101629.28;;;3.14;100.00
53619;BME280;68717;53.040;18.488;2023-11-18T01:06:35;101629.28;;;3.14;100.00
53619;BME280;68717;53.040;18.488;2023-11-18T01:06:48;101625.75;;;3.13;100.00
53619;BME280;68717;53.040;18.488;2023-11-18T01:07:03;101631.94;;;3.14;100.00
53619;BME280;68717;53.040;18.488;2023-11-18T01:07:16;101625.75;;;3.13;100.00
53619;BME280;68717;53.040;18.488;2023-11-18T01:07:29;101626.63;;;3.14;100.00
53619;BME280;68717;53.040;18.488;2023-11-18T01:07:42;101630.19;;;3.13;100.00
53619;BME280;68717;53.040;18.488;2023-11-18T01:07:56;101629.28;;;3.14;100.00
53619;BME280;68717;53.040;18.488;2023-11-18T01:08:08;101628.50;;;3.12;100.00
53619;BME280;68717;53.040;18.488;2023-11-18T01:08:21;101624.91;;;3.13;100.00
53619;BME280;68717;53.040;18.488;2023-11-18T01:08:34;101632.84;;;3.13;100.00
53619;BME280;68717;53.040;18.488;2023-11-18T01:08:47;101633.78;;;3.12;100.00
53619;BME280;68717;53.040;18.488;2023-11-18T01:08:59;101630.19;;;3.13;100.00